Time;durP1;ratioP1;P1;durP2;ratioP2;P2;SDS_P1;SDS_P2;PMS_P1;PMS_P2;Temp;Humidity;BMP_temperature;BMP_pressure;BME280_temperature;BME280_humidity;BME280_pressure;Samples;Min_cycle;Max_cycle;Signal;HPM_P1;HPM_P2
2021/03/20 00:00:26;;;;;;;6.10;4.80;;;;;;;-1.24;79.01;97425.34;5037724;28;20225;-66
2021/03/20 00:02:52;;;;;;;5.13;4.63;;;;;;;-1.18;79.36;97423.97;5033496;28;20183;-66
2021/03/20 00:05:19;;;;;;;6.23;4.83;;;;;;;-1.22;79.09;97431.13;5044184;28;20276;-66
2021/03/20 00:07:45;;;;;;;6.37;4.80;;;;;;;-1.24;79.75;97430.47;5042102;28;20174;-68
2021/03/20 00:10:13;;;;;;;8.53;5.27;;;;;;;-1.18;79.56;97431.69;5040492;28;20209;-66
2021/03/20 00:12:40;;;;;;;7.73;4.90;;;;;;;-1.22;79.79;97422.59;5024597;28;20242;-68
2021/03/20 00:15:08;;;;;;;7.13;4.77;;;;;;;-1.24;79.61;97421.94;5036544;28;20171;-68
2021/03/20 00:17:34;;;;;;;8.03;5.10;;;;;;;-1.18;79.86;97435.06;5026520;28;20183;-66
2021/03/20 00:20:00;;;;;;;8.30;5.10;;;;;;;-1.23;79.89;97429.53;5022746;28;20763;-66
2021/03/20 00:22:26;;;;;;;6.30;5.07;;;;;;;-1.22;80.12;97425.16;5030324;28;20179;-66
2021/03/20 00:24:51;;;;;;;6.30;4.80;;;;;;;-1.25;80.86;97426.28;5046084;28;20178;-66
2021/03/20 00:27:17;;;;;;;6.77;5.20;;;;;;;-1.34;80.83;97433.03;5023056;28;20174;-68
2021/03/20 00:29:43;;;;;;;6.37;5.43;;;;;;;-1.30;81.42;97431.84;5037235;28;20669;-68
2021/03/20 00:32:08;;;;;;;10.57;6.63;;;;;;;-1.29;81.13;97430.06;5034112;28;20621;-68
2021/03/20 00:34:34;;;;;;;9.30;6.17;;;;;;;-1.32;81.30;97428.56;5052789;28;20177;-66
2021/03/20 00:36:59;;;;;;;6.67;5.50;;;;;;;-1.31;81.57;97427.63;5027705;28;20199;-67
2021/03/20 00:39:25;;;;;;;6.60;5.10;;;;;;;-1.34;82.04;97434.81;5021007;28;20273;-67
2021/03/20 00:41:51;;;;;;;7.73;5.27;;;;;;;-1.37;81.85;97429.94;5042061;28;20529;-66
2021/03/20 00:44:16;;;;;;;7.60;5.10;;;;;;;-1.48;82.53;97424.94;5023670;28;20170;-66
2021/03/20 00:46:42;;;;;;;6.77;5.20;;;;;;;-1.38;82.21;97430.88;5029460;28;20469;-66
2021/03/20 00:49:07;;;;;;;9.13;5.80;;;;;;;-1.35;82.43;97430.63;5022863;28;20234;-67
2021/03/20 00:51:33;;;;;;;6.80;5.17;;;;;;;-1.37;82.26;97430.75;5033043;28;20235;-67
2021/03/20 00:53:59;;;;;;;8.40;5.33;;;;;;;-1.27;82.09;97431.53;5039524;28;20517;-66
2021/03/20 00:56:24;;;;;;;6.83;5.20;;;;;;;-1.28;82.88;97432.50;5030281;28;20183;-66
2021/03/20 00:58:50;;;;;;;8.60;5.73;;;;;;;-1.24;82.00;97430.47;5038819;28;20573;-66
2021/03/20 01:01:18;;;;;;;7.07;5.67;;;;;;;-1.12;81.77;97428.56;5039369;28;21167;-66
2021/03/20 01:03:45;;;;;;;7.60;5.40;;;;;;;-1.20;82.15;97431.81;5039703;28;20224;-66
2021/03/20 01:06:15;;;;;;;6.00;5.10;;;;;;;-1.24;82.66;97430.47;5035204;28;20594;-66
2021/03/20 01:08:41;;;;;;;6.33;5.07;;;;;;;-1.14;82.32;97435.59;5035046;28;20175;-66
2021/03/20 01:11:07;;;;;;;7.40;5.50;;;;;;;-1.12;81.71;97431.94;5045709;28;20259;-66
2021/03/20 01:13:33;;;;;;;7.93;6.07;;;;;;;-0.99;81.46;97439.34;5034959;28;20217;-66
2021/03/20 01:15:59;;;;;;;8.50;5.27;;;;;;;-1.01;81.69;97434.38;5033874;28;20592;-66
2021/03/20 01:18:25;;;;;;;6.67;5.20;;;;;;;-0.98;81.97;97433.25;5038056;28;20183;-66
2021/03/20 01:20:51;;;;;;;6.40;5.10;;;;;;;-1.12;82.29;97426.81;5043908;28;20217;-66
2021/03/20 01:23:17;;;;;;;6.83;5.03;;;;;;;-1.11;81.82;97430.16;5044333;28;21053;-66
2021/03/20 01:25:42;;;;;;;8.90;5.17;;;;;;;-1.02;81.92;97425.03;5044759;28;20552;-66
2021/03/20 01:28:08;;;;;;;6.03;5.00;;;;;;;-1.04;81.93;97433.81;5015824;28;20179;-67
2021/03/20 01:30:36;;;;;;;6.63;5.10;;;;;;;-0.95;81.86;97433.00;5050914;28;20206;-66
2021/03/20 01:33:03;;;;;;;7.60;5.73;;;;;;;-0.96;81.62;97434.75;5039165;28;20175;-66
2021/03/20 01:35:29;;;;;;;6.00;4.90;;;;;;;-1.00;82.09;97438.53;5038188;28;20175;-66
2021/03/20 01:37:55;;;;;;;7.07;5.17;;;;;;;-0.90;81.60;97431.63;5036291;28;20213;-66
2021/03/20 01:40:26;;;;;;;6.43;5.60;;;;;;;-0.92;81.47;97436.09;5033032;28;20226;-68
2021/03/20 01:42:53;;;;;;;6.07;5.30;;;;;;;-1.01;81.99;97438.69;5036581;28;20643;-68
2021/03/20 01:45:26;;;;;;;8.47;5.43;;;;;;;-1.17;82.91;97441.81;5045427;28;20190;-67
2021/03/20 01:47:57;;;;;;;6.57;5.50;;;;;;;-1.04;82.99;97436.38;5044324;28;20181;-67
2021/03/20 01:50:56;;;;;;;6.40;5.50;;;;;;;-1.01;82.19;97442.09;5035993;28;20286;-65
2021/03/20 01:53:58;;;;;;;6.70;5.40;;;;;;;-0.97;82.77;97443.44;5020069;28;20201;-66
2021/03/20 01:56:40;;;;;;;6.57;5.20;;;;;;;-0.97;82.06;97448.56;5047093;28;20190;-65
2021/03/20 01:59:07;;;;;;;5.80;5.10;;;;;;;-0.90;82.81;97444.50;5021925;28;20235;-66
2021/03/20 02:01:33;;;;;;;6.63;5.70;;;;;;;-0.85;81.96;97441.50;5027814;28;20217;-66
2021/03/20 02:04:03;;;;;;;7.30;5.83;;;;;;;-0.76;82.27;97448.38;5027971;28;20183;-66
2021/03/20 02:06:28;;;;;;;7.97;6.23;;;;;;;-0.77;82.06;97451.91;5033934;28;20297;-68
2021/03/20 02:08:58;;;;;;;7.60;5.70;;;;;;;-0.95;82.67;97446.66;5025257;28;20202;-66
2021/03/20 02:11:34;;;;;;;10.60;6.20;;;;;;;-0.96;83.16;97434.75;5041694;28;20199;-67
2021/03/20 02:14:16;;;;;;;8.57;5.90;;;;;;;-0.81;82.87;97444.59;5031902;28;20265;-67
2021/03/20 02:16:55;;;;;;;8.07;5.33;;;;;;;-0.80;82.65;97447.03;5046466;28;20184;-66
2021/03/20 02:19:33;;;;;;;7.17;5.10;;;;;;;-0.72;82.94;97439.41;5020407;28;20280;-66
2021/03/20 02:22:13;;;;;;;6.13;5.23;;;;;;;-0.57;82.23;97437.22;5030390;28;20186;-67
2021/03/20 02:25:27;;;;;;;8.47;5.77;;;;;;;-0.58;82.23;97443.31;5044614;28;20315;-67
2021/03/20 02:28:01;;;;;;;8.27;5.17;;;;;;;-0.55;81.76;97441.25;5030022;28;20213;-67
2021/03/20 02:30:32;;;;;;;6.10;5.40;;;;;;;-0.49;81.90;97438.13;5022569;28;20198;-66
2021/03/20 02:33:34;;;;;;;7.97;5.50;;;;;;;-0.59;81.79;97437.34;5045345;28;20174;-67
2021/03/20 02:36:20;;;;;;;6.83;5.50;;;;;;;-0.74;82.84;97446.50;5032715;28;20169;-66
2021/03/20 02:38:57;;;;;;;5.77;5.23;;;;;;;-0.69;82.60;97446.06;4997047;28;20179;-67
2021/03/20 02:41:33;;;;;;;7.87;5.47;;;;;;;-0.63;82.67;97451.47;5012574;28;20249;-67
2021/03/20 02:44:13;;;;;;;8.47;6.03;;;;;;;-0.66;83.24;97444.00;5032370;28;20224;-67
2021/03/20 02:46:43;;;;;;;9.30;6.43;;;;;;;-0.63;83.35;97443.75;5000169;28;20191;-66
2021/03/20 02:49:17;;;;;;;7.30;5.77;;;;;;;-0.61;83.09;97443.59;5042569;28;20211;-66
2021/03/20 02:51:49;;;;;;;5.80;5.20;;;;;;;-0.58;83.53;97438.16;5029562;28;20190;-66
2021/03/20 02:54:28;;;;;;;8.10;6.07;;;;;;;-0.55;83.44;97438.69;5024994;28;20183;-67
2021/03/20 02:59:30;;;;;;;9.67;5.73;;;;;;;-0.88;84.60;97441.78;5002331;28;20645;-66
2021/03/20 03:02:01;;;;;;;8.47;5.97;;;;;;;-0.65;84.72;97429.38;5005959;28;20180;-66
2021/03/20 03:04:32;;;;;;;7.37;6.13;;;;;;;-0.65;84.84;97429.38;5007024;28;20175;-67
2021/03/20 03:07:07;;;;;;;9.00;5.70;;;;;;;-0.54;85.08;97418.91;5021437;28;20174;-66
2021/03/20 03:09:44;;;;;;;8.33;6.20;;;;;;;-0.44;84.58;97411.94;4994300;28;20192;-67
2021/03/20 03:12:23;;;;;;;6.47;5.73;;;;;;;-0.44;84.62;97423.06;5000585;28;20203;-66
2021/03/20 03:15:11;;;;;;;11.10;6.13;;;;;;;-0.40;83.72;97422.78;5021752;28;20174;-66
2021/03/20 03:17:44;;;;;;;8.83;6.27;;;;;;;-0.32;83.49;97421.13;5008028;28;20635;-67
2021/03/20 03:20:14;;;;;;;6.93;5.97;;;;;;;-0.38;83.39;97419.09;5007410;28;20231;-66
2021/03/20 03:22:50;;;;;;;7.93;6.00;;;;;;;-0.35;83.30;97420.59;5019530;28;20190;-67
2021/03/20 03:25:19;;;;;;;7.67;6.20;;;;;;;-0.39;82.79;97429.56;5010844;28;20196;-67
2021/03/20 03:27:49;;;;;;;8.43;6.47;;;;;;;-0.68;84.14;97433.06;5014380;28;20187;-66
2021/03/20 03:30:18;;;;;;;14.23;7.03;;;;;;;-0.74;85.29;97438.78;5013707;28;20203;-68
2021/03/20 03:32:50;;;;;;;8.77;6.30;;;;;;;-0.83;85.80;97429.28;5000108;28;20175;-66
2021/03/20 03:35:18;;;;;;;9.47;6.50;;;;;;;-0.79;86.19;97440.13;5012445;28;20183;-66
2021/03/20 03:38:05;;;;;;;9.27;7.00;;;;;;;-0.79;86.14;97448.69;5015181;28;20505;-66
2021/03/20 03:40:48;;;;;;;8.17;6.47;;;;;;;-0.90;86.94;97447.06;5014446;28;20205;-66
2021/03/20 03:43:15;;;;;;;9.47;6.90;;;;;;;-1.10;87.95;97449.78;4997620;28;20705;-66
2021/03/20 03:45:45;;;;;;;9.90;6.80;;;;;;;-1.02;88.07;97455.88;5019927;28;20192;-67
2021/03/20 03:48:12;;;;;;;9.33;6.83;;;;;;;-1.08;88.71;97460.78;5011404;28;20179;-66
2021/03/20 03:50:40;;;;;;;9.40;7.23;;;;;;;-1.08;89.17;97460.78;5005638;28;20582;-66
2021/03/20 03:53:08;;;;;;;9.27;6.53;;;;;;;-1.11;88.96;97466.16;5004790;28;20652;-66
2021/03/20 03:55:34;;;;;;;9.90;7.57;;;;;;;-1.16;89.95;97469.16;5025902;28;20642;-68
2021/03/20 03:58:37;;;;;;;9.37;6.77;;;;;;;-1.08;89.28;97474.44;5009546;28;20222;-66
2021/03/20 04:01:15;;;;;;;10.37;7.37;;;;;;;-1.26;88.89;97479.47;5020291;28;20246;-66
2021/03/20 04:03:54;;;;;;;9.23;7.17;;;;;;;-1.29;90.54;97476.34;5015817;28;20172;-66
2021/03/20 04:06:44;;;;;;;10.13;7.33;;;;;;;-1.13;90.62;97468.91;5027050;28;20174;-66
2021/03/20 04:09:42;;;;;;;9.23;7.10;;;;;;;-1.14;90.36;97463.88;5037419;28;20166;-66
2021/03/20 04:12:19;;;;;;;9.50;7.03;;;;;;;-1.12;90.48;97469.72;5029470;28;20178;-67
2021/03/20 04:15:02;;;;;;;7.93;7.00;;;;;;;-1.07;88.80;97475.25;5028859;28;20175;-67
2021/03/20 04:17:58;;;;;;;10.43;7.40;;;;;;;-1.24;90.08;97473.38;5035630;28;20179;-66
2021/03/20 04:20:54;;;;;;;8.43;6.87;;;;;;;-1.15;90.19;97467.41;5033939;28;20238;-66
2021/03/20 04:23:31;;;;;;;9.03;7.00;;;;;;;-1.14;89.47;97463.88;5046485;28;20193;-67
2021/03/20 04:26:18;;;;;;;8.37;6.27;;;;;;;-1.22;91.06;97456.03;5026380;28;20568;-67
2021/03/20 04:28:52;;;;;;;8.33;7.13;;;;;;;-1.05;88.91;97468.19;5030481;28;20183;-66
2021/03/20 04:31:31;;;;;;;11.27;7.10;;;;;;;-1.03;89.47;97466.31;5046393;28;20219;-66
2021/03/20 04:34:15;;;;;;;8.83;7.00;;;;;;;-1.16;89.36;97465.78;5051199;28;20261;-68
2021/03/20 04:36:46;;;;;;;9.10;7.00;;;;;;;-1.17;90.01;97471.88;5031155;28;20181;-67
2021/03/20 04:39:15;;;;;;;9.73;7.07;;;;;;;-1.19;89.46;97476.34;5021970;28;20195;-66
2021/03/20 04:41:41;;;;;;;9.33;7.10;;;;;;;-1.20;89.87;97485.81;5047370;28;20176;-66
2021/03/20 04:44:08;;;;;;;10.00;7.43;;;;;;;-1.37;90.65;97482.16;5026389;28;20177;-66
2021/03/20 04:46:36;;;;;;;10.97;7.03;;;;;;;-1.28;90.69;97490.81;5032938;28;20182;-67
2021/03/20 04:49:10;;;;;;;8.47;6.90;;;;;;;-1.37;91.34;97496.78;5041686;28;20194;-67
2021/03/20 04:51:49;;;;;;;10.80;7.57;;;;;;;-1.31;91.16;97496.22;5044881;28;20185;-66
2021/03/20 04:54:19;;;;;;;10.63;7.40;;;;;;;-1.32;90.78;97490.28;5019569;28;20179;-66
2021/03/20 04:56:45;;;;;;;9.23;7.13;;;;;;;-1.40;92.06;97492.72;5040467;28;20296;-67
2021/03/20 04:59:21;;;;;;;10.33;8.00;;;;;;;-1.44;91.85;97491.34;5033377;28;20707;-66
2021/03/20 05:01:53;;;;;;;10.73;7.97;;;;;;;-1.47;92.38;97488.25;5023112;28;20646;-67
2021/03/20 05:04:27;;;;;;;10.10;7.90;;;;;;;-1.55;92.72;97494.03;5045939;28;20703;-67
2021/03/20 05:06:57;;;;;;;9.37;7.33;;;;;;;-1.61;92.47;97499.72;5016377;28;20180;-68
2021/03/20 05:09:25;;;;;;;9.80;7.93;;;;;;;-1.53;92.98;97486.22;5025915;28;20663;-67
2021/03/20 05:11:54;;;;;;;11.37;7.83;;;;;;;-1.65;93.43;97493.22;5043355;28;20648;-67
2021/03/20 05:14:27;;;;;;;10.60;7.87;;;;;;;-1.74;93.45;97488.91;5018168;28;20185;-67
2021/03/20 05:17:00;;;;;;;9.57;7.27;;;;;;;-1.77;93.28;97489.97;5043763;28;20254;-66
2021/03/20 05:19:27;;;;;;;10.03;7.07;;;;;;;-1.91;93.93;97487.78;5050656;28;20180;-66
2021/03/20 05:21:54;;;;;;;11.07;7.90;;;;;;;-1.72;93.20;97489.56;5023494;28;20545;-67
2021/03/20 05:24:35;;;;;;;11.10;7.20;;;;;;;-1.79;93.15;97491.88;5019704;28;20203;-66
2021/03/20 05:27:03;;;;;;;9.13;7.13;;;;;;;-1.78;93.40;97492.66;5029304;28;20628;-67
2021/03/20 05:29:29;;;;;;;8.73;6.93;;;;;;;-1.76;92.80;97489.03;5042322;28;20193;-67
2021/03/20 05:31:57;;;;;;;8.93;7.47;;;;;;;-1.62;92.45;97494.72;5039903;28;20211;-67
2021/03/20 05:34:47;;;;;;;9.10;7.23;;;;;;;-1.67;92.82;97503.63;5028258;28;20174;-66
2021/03/20 05:37:36;;;;;;;10.67;8.13;;;;;;;-1.53;92.32;97501.63;5021338;28;20225;-66
2021/03/20 05:40:04;;;;;;;8.10;6.90;;;;;;;-1.40;91.32;97510.72;5006280;28;20198;-66
2021/03/20 05:42:33;;;;;;;9.97;7.53;;;;;;;-1.34;91.09;97509.38;5025997;28;20212;-67
2021/03/20 05:45:10;;;;;;;9.10;7.03;;;;;;;-1.47;91.88;97498.53;5024632;28;20206;-66
2021/03/20 05:48:10;;;;;;;9.53;7.20;;;;;;;-1.33;91.34;97501.50;5046600;28;20658;-66
2021/03/20 05:50:48;;;;;;;7.60;6.77;;;;;;;-1.47;91.73;97501.91;4993332;28;20210;-66
2021/03/20 05:53:45;;;;;;;9.03;7.27;;;;;;;-1.54;92.52;97508.53;5025149;28;20254;-66
2021/03/20 05:56:33;;;;;;;9.67;6.73;;;;;;;-1.44;92.29;97505.97;5013608;28;20211;-66
2021/03/20 05:59:04;;;;;;;8.20;6.53;;;;;;;-1.48;91.89;97499.47;5021673;28;20279;-66
2021/03/20 06:01:51;;;;;;;8.43;7.17;;;;;;;-1.35;91.30;97512.88;5020984;28;20290;-67
2021/03/20 06:04:40;;;;;;;7.90;6.70;;;;;;;-1.42;90.95;97520.31;5013784;28;20183;-66
2021/03/20 06:07:32;;;;;;;11.50;7.80;;;;;;;-1.56;91.63;97520.69;5024380;28;20185;-67
2021/03/20 06:10:22;;;;;;;9.27;7.00;;;;;;;-1.68;92.64;97526.91;5026408;28;20284;-67
2021/03/20 06:13:02;;;;;;;11.17;7.03;;;;;;;-1.56;92.90;97528.41;5020865;28;20179;-66
2021/03/20 06:15:34;;;;;;;9.03;6.77;;;;;;;-1.44;91.61;97535.03;5022724;28;20186;-66
2021/03/20 06:18:14;;;;;;;9.63;6.83;;;;;;;-1.51;91.84;97531.41;5026826;28;20173;-66
2021/03/20 06:20:56;;;;;;;7.93;6.40;;;;;;;-1.52;90.85;97534.91;5028371;28;20211;-66
2021/03/20 06:23:44;;;;;;;7.70;6.17;;;;;;;-1.41;90.11;97532.22;5029950;28;20193;-66
2021/03/20 06:26:26;;;;;;;7.60;6.00;;;;;;;-1.44;89.53;97536.81;5027843;28;20225;-67
2021/03/20 06:28:59;;;;;;;8.77;6.03;;;;;;;-1.39;88.49;97543.16;5025417;28;20583;-66
2021/03/20 06:31:42;;;;;;;7.80;6.20;;;;;;;-1.29;89.07;97546.59;5019577;28;20199;-66
2021/03/20 06:34:19;;;;;;;6.73;5.73;;;;;;;-1.27;87.58;97551.56;5045612;28;20220;-66
2021/03/20 06:36:52;;;;;;;8.00;6.10;;;;;;;-1.14;86.98;97552.13;5032434;28;20232;-67
2021/03/20 06:40:00;;;;;;;7.20;5.93;;;;;;;-1.30;85.92;97555.25;5021233;28;20194;-66
2021/03/20 06:42:31;;;;;;;8.07;5.27;;;;;;;-1.24;86.07;97568.50;5002418;28;20196;-66
2021/03/20 06:45:02;;;;;;;8.27;5.77;;;;;;;-1.47;85.59;97563.59;5022134;28;20182;-66
2021/03/20 06:47:32;;;;;;;7.33;6.47;;;;;;;-1.42;86.52;97570.91;5044008;28;20182;-66
2021/03/20 06:50:04;;;;;;;7.50;6.30;;;;;;;-1.54;86.74;97569.41;5014831;28;20214;-66
2021/03/20 06:52:32;;;;;;;7.70;5.70;;;;;;;-1.43;85.23;97577.81;5033271;28;20340;-66
2021/03/20 06:55:01;;;;;;;5.90;5.30;;;;;;;-1.43;84.50;97575.25;5022321;28;20262;-66
2021/03/20 06:57:27;;;;;;;8.03;5.50;;;;;;;-1.41;84.58;97575.13;5041829;28;20241;-66
2021/03/20 06:59:54;;;;;;;6.30;5.17;;;;;;;-1.33;84.48;97575.25;5032287;28;20243;-66
2021/03/20 07:02:20;;;;;;;7.33;5.93;;;;;;;-1.18;83.69;97583.41;5038943;28;20174;-63
2021/03/20 07:05:16;;;;;;;7.40;4.93;;;;;;;-1.15;83.29;97588.28;5018283;28;20646;-64
2021/03/20 07:07:50;;;;;;;8.20;4.90;;;;;;;-1.09;82.58;97590.31;5012573;28;20548;-64
2021/03/20 07:10:34;;;;;;;5.87;4.63;;;;;;;-1.22;80.59;97590.56;5011853;28;20206;-65
2021/03/20 07:13:17;;;;;;;5.10;4.60;;;;;;;-1.46;79.85;97593.50;5024016;28;20250;-63
2021/03/20 07:15:44;;;;;;;4.33;3.90;;;;;;;-1.40;77.89;97587.84;5043756;28;20364;-65
2021/03/20 07:18:17;;;;;;;5.57;4.23;;;;;;;-1.36;76.27;97588.38;5030468;28;20222;-66
2021/03/20 07:20:43;;;;;;;4.73;4.23;;;;;;;-1.28;76.76;97597.03;5042112;28;20205;-65
2021/03/20 07:23:15;;;;;;;5.03;3.87;;;;;;;-1.36;76.24;97591.78;5017613;28;20181;-64
2021/03/20 07:26:06;;;;;;;6.17;4.60;;;;;;;-1.17;76.04;97603.81;5041118;28;20516;-65
2021/03/20 07:28:32;;;;;;;5.03;4.30;;;;;;;-1.15;76.17;97607.09;5021498;28;20783;-65
2021/03/20 07:30:58;;;;;;;5.03;4.40;;;;;;;-1.21;76.55;97591.38;5048588;28;20201;-65
2021/03/20 07:33:47;;;;;;;4.43;4.00;;;;;;;-0.95;76.69;97589.94;5022628;28;20176;-64
2021/03/20 07:36:25;;;;;;;5.43;4.80;;;;;;;-0.86;75.87;97600.22;5014977;28;20187;-64
2021/03/20 07:39:06;;;;;;;4.30;3.90;;;;;;;-1.09;75.41;97598.03;5017545;28;20182;-63
2021/03/20 07:41:56;;;;;;;5.60;4.60;;;;;;;-1.05;75.88;97607.91;5015177;28;20191;-64
2021/03/20 07:44:28;;;;;;;5.70;5.10;;;;;;;-1.09;75.08;97598.84;5028914;28;20188;-65
2021/03/20 07:46:56;;;;;;;6.03;4.57;;;;;;;-0.87;75.17;97601.16;5046210;28;20263;-65
2021/03/20 07:49:33;;;;;;;5.50;4.43;;;;;;;-0.69;75.09;97609.03;5015611;28;20198;-66
2021/03/20 07:52:02;;;;;;;4.87;4.40;;;;;;;-0.70;74.11;97609.16;5038504;28;20286;-65
2021/03/20 07:54:37;;;;;;;5.10;4.60;;;;;;;-0.64;74.07;97606.84;5050929;28;20269;-65
2021/03/20 07:57:18;;;;;;;4.73;4.33;;;;;;;-0.39;72.59;97609.81;5016939;28;20183;-66
2021/03/20 07:59:46;;;;;;;5.00;4.60;;;;;;;-0.51;72.15;97616.88;5002563;28;20689;-65
2021/03/20 08:02:39;;;;;;;5.23;4.80;;;;;;;-0.39;71.90;97618.31;5005428;28;20629;-65
2021/03/20 08:05:26;;;;;;;5.63;5.10;;;;;;;-0.48;72.00;97626.88;4980517;28;20191;-65
2021/03/20 08:07:54;;;;;;;5.43;4.93;;;;;;;-0.42;71.63;97632.31;5010563;28;20553;-65
2021/03/20 08:10:28;;;;;;;5.40;4.57;;;;;;;-0.23;71.12;97633.25;5001780;28;20671;-66
2021/03/20 08:13:01;;;;;;;5.87;4.33;;;;;;;-0.40;69.09;97645.06;5009556;28;20230;-65
2021/03/20 08:15:31;;;;;;;5.97;4.60;;;;;;;-0.37;67.63;97646.53;5000716;28;20271;-66
2021/03/20 08:17:59;;;;;;;5.37;4.67;;;;;;;-0.33;68.27;97643.53;5011172;28;20195;-66
2021/03/20 08:20:26;;;;;;;5.77;5.23;;;;;;;-0.33;68.29;97650.44;5006976;28;20204;-67
2021/03/20 08:23:11;;;;;;;7.53;5.00;;;;;;;-0.69;69.83;97645.06;5001610;28;20180;-65
2021/03/20 08:26:01;;;;;;;4.50;4.17;;;;;;;-0.70;67.83;97646.00;5008280;28;20237;-65
2021/03/20 08:28:47;;;;;;;5.70;4.83;;;;;;;-0.71;68.95;97620.38;5004029;28;20187;-65
2021/03/20 08:31:46;;;;;;;4.77;4.30;;;;;;;-0.82;67.60;97633.38;5002613;28;20195;-64
2021/03/20 08:34:26;;;;;;;4.93;4.43;;;;;;;-0.95;67.33;97641.38;5008700;28;20661;-63
2021/03/20 08:37:07;;;;;;;7.17;5.27;;;;;;;-0.91;66.65;97650.44;4998289;28;20184;-62
2021/03/20 08:40:03;;;;;;;5.03;4.40;;;;;;;-0.92;67.48;97647.06;5006868;28;20206;-66
2021/03/20 08:42:51;;;;;;;5.67;5.13;;;;;;;-0.82;67.56;97651.41;5005193;28;20690;-66
2021/03/20 08:45:32;;;;;;;4.90;4.50;;;;;;;-1.16;66.87;97656.06;5011362;28;20239;-67
2021/03/20 08:48:16;;;;;;;4.77;4.27;;;;;;;-1.06;66.58;97655.16;5001833;28;20693;-61
2021/03/20 08:51:13;;;;;;;5.10;4.57;;;;;;;-0.92;65.76;97671.97;5000386;28;20258;-60
2021/03/20 08:54:02;;;;;;;6.00;4.67;;;;;;;-0.82;64.75;97671.97;4985064;28;20191;-67
2021/03/20 08:59:39;;;;;;;4.63;3.50;;;;;;;-1.02;61.10;97676.28;5010179;28;20234;-65
2021/03/20 09:02:23;;;;;;;5.93;3.70;;;;;;;-1.06;60.72;97680.88;5012253;28;20186;-64
2021/03/20 09:05:08;;;;;;;4.43;3.73;;;;;;;-1.00;59.89;97670.06;5010909;28;20172;-63
2021/03/20 09:07:51;;;;;;;4.20;3.80;;;;;;;-0.74;60.46;97672.94;5006555;28;20192;-64
2021/03/20 09:10:24;;;;;;;3.80;3.40;;;;;;;-0.48;59.35;97665.50;4994004;28;20467;-62
2021/03/20 09:13:00;;;;;;;4.07;3.73;;;;;;;-0.38;57.49;97668.88;5012443;28;20187;-64
2021/03/20 09:15:29;;;;;;;3.90;3.60;;;;;;;-0.36;56.83;97673.91;5010796;28;20187;-64
2021/03/20 09:17:58;;;;;;;3.53;3.23;;;;;;;-0.30;58.19;97665.63;5012155;28;20274;-64
2021/03/20 09:20:46;;;;;;;3.93;3.47;;;;;;;-0.37;56.96;97685.16;5011720;28;20218;-66
2021/03/20 09:23:34;;;;;;;3.60;3.30;;;;;;;-0.59;56.89;97678.50;5012765;28;20251;-64
2021/03/20 09:26:02;;;;;;;4.63;3.40;;;;;;;-0.29;58.62;97680.13;5012292;28;20186;-62
2021/03/20 09:28:51;;;;;;;3.67;3.37;;;;;;;-0.17;56.00;97684.22;5011865;28;20195;-63
2021/03/20 09:31:28;;;;;;;3.93;3.50;;;;;;;-0.23;55.86;97679.59;5015249;28;20226;-64
2021/03/20 09:33:57;;;;;;;4.00;3.50;;;;;;;-0.09;55.09;97682.56;5017702;28;20194;-65
2021/03/20 09:36:28;;;;;;;3.60;3.27;;;;;;;0.02;55.84;97684.16;5013404;28;20179;-66
2021/03/20 09:38:58;;;;;;;3.63;3.43;;;;;;;0.34;56.02;97679.47;5013202;28;20546;-66
2021/03/20 09:41:24;;;;;;;4.20;3.80;;;;;;;0.61;54.60;97676.13;5011720;28;20617;-69
2021/03/20 09:43:58;;;;;;;5.10;3.40;;;;;;;1.00;54.62;97663.84;5012607;28;20606;-67
2021/03/20 09:46:39;;;;;;;3.10;2.90;;;;;;;1.56;52.80;97670.53;5011440;28;20576;-67
2021/03/20 09:49:08;;;;;;;3.10;2.90;;;;;;;1.68;51.73;97667.53;5012625;28;20183;-67
2021/03/20 09:51:48;;;;;;;3.30;3.00;;;;;;;1.59;51.15;97670.22;5011949;28;20195;-67
2021/03/20 09:54:26;;;;;;;7.50;4.80;;;;;;;0.73;51.76;97662.06;5012350;28;20182;-67
2021/03/20 09:59:35;;;;;;;4.13;3.07;;;;;;;0.87;51.33;97660.78;5000381;28;20279;-67
2021/03/20 10:02:10;;;;;;;3.53;3.00;;;;;;;0.97;51.82;97668.47;5011823;28;20175;-67
2021/03/20 10:04:58;;;;;;;3.13;2.83;;;;;;;0.93;49.80;97664.56;5011027;28;20261;-67
2021/03/20 10:07:24;;;;;;;3.00;2.80;;;;;;;1.24;48.66;97655.53;5011500;28;20258;-67
2021/03/20 10:09:58;;;;;;;3.10;2.90;;;;;;;0.79;49.29;97653.75;5011514;28;20238;-66
2021/03/20 10:12:25;;;;;;;3.33;3.03;;;;;;;1.00;49.82;97650.94;5010889;28;20658;-66
2021/03/20 10:15:17;;;;;;;3.10;2.80;;;;;;;1.18;49.10;97651.75;4993788;28;20167;-67
2021/03/20 10:18:06;;;;;;;2.60;2.40;;;;;;;1.09;47.25;97644.91;5002431;28;20531;-68
2021/03/20 10:20:56;;;;;;;3.13;2.23;;;;;;;0.82;44.56;97657.84;5007503;28;20231;-67
2021/03/20 10:23:43;;;;;;;2.33;2.10;;;;;;;1.17;45.36;97657.09;5004522;28;20171;-67
2021/03/20 10:26:48;;;;;;;3.67;2.40;;;;;;;1.06;45.28;97647.75;5011367;28;20175;-67
2021/03/20 10:29:16;;;;;;;2.33;2.23;;;;;;;0.89;43.46;97652.91;5009758;28;20666;-67
2021/03/20 10:31:45;;;;;;;2.67;2.40;;;;;;;0.85;44.33;97652.38;4993217;28;20210;-67
2021/03/20 10:34:16;;;;;;;2.30;2.10;;;;;;;0.78;44.04;97651.34;5011370;28;20557;-68
2021/03/20 10:36:45;;;;;;;4.07;2.00;;;;;;;0.70;43.13;97658.97;5010360;28;20559;-65
2021/03/20 10:39:21;;;;;;;2.73;2.17;;;;;;;0.57;44.44;97655.91;4993379;28;20187;-66
2021/03/20 10:41:47;;;;;;;2.50;2.30;;;;;;;0.70;43.67;97659.78;5012047;28;20258;-65
2021/03/20 10:44:19;;;;;;;2.50;2.30;;;;;;;0.93;45.62;97652.47;5011237;28;20202;-68
2021/03/20 10:46:45;;;;;;;3.50;2.60;;;;;;;1.01;45.44;97651.72;5010655;28;20177;-65
2021/03/20 10:49:23;;;;;;;2.50;2.30;;;;;;;0.87;46.51;97667.72;5011154;28;20218;-65
2021/03/20 10:51:51;;;;;;;2.40;2.20;;;;;;;0.66;46.69;97655.88;5011325;28;20189;-65
2021/03/20 10:54:29;;;;;;;2.83;2.50;;;;;;;0.73;46.22;97643.19;5011575;28;20175;-66
2021/03/20 10:59:34;;;;;;;2.70;2.50;;;;;;;0.88;47.11;97651.28;5007122;28;20748;-65
2021/03/20 11:02:29;;;;;;;2.80;2.60;;;;;;;0.96;45.37;97639.25;5011099;28;20210;-65
2021/03/20 11:05:33;;;;;;;2.27;2.03;;;;;;;0.96;45.06;97638.44;5011492;28;20178;-64
2021/03/20 11:08:01;;;;;;;2.80;2.30;;;;;;;1.02;43.77;97643.84;5006846;28;20676;-65
2021/03/20 11:10:43;;;;;;;3.37;2.20;;;;;;;0.78;42.13;97656.50;5010110;28;20203;-64
2021/03/20 11:13:35;;;;;;;2.43;2.23;;;;;;;0.91;43.77;97648.41;5009316;28;20650;-65
2021/03/20 11:16:14;;;;;;;2.50;2.30;;;;;;;1.12;44.27;97639.44;5010548;28;20547;-65
2021/03/20 11:18:44;;;;;;;2.40;2.20;;;;;;;1.16;44.58;97656.28;4991856;28;20190;-66
2021/03/20 11:21:19;;;;;;;2.83;2.53;;;;;;;0.90;44.85;97657.91;5011923;28;20719;-66
2021/03/20 11:23:54;;;;;;;2.70;2.50;;;;;;;0.47;44.67;97666.25;5010494;28;20194;-65
2021/03/20 11:26:32;;;;;;;2.63;2.43;;;;;;;0.69;44.65;97665.09;5010078;28;20652;-65
2021/03/20 11:29:00;;;;;;;2.40;2.20;;;;;;;0.54;43.93;97669.09;5010550;28;20195;-66
2021/03/20 11:31:26;;;;;;;2.20;2.00;;;;;;;0.82;43.11;97656.06;5009859;28;20210;-65
2021/03/20 11:33:53;;;;;;;2.53;2.40;;;;;;;1.09;44.53;97644.91;5009939;28;20183;-64
2021/03/20 11:36:22;;;;;;;2.40;2.20;;;;;;;1.23;44.44;97653.88;5010169;28;20180;-64
2021/03/20 11:38:48;;;;;;;2.67;2.47;;;;;;;1.04;44.75;97656.63;5010193;28;20270;-64
2021/03/20 11:41:20;;;;;;;3.00;2.70;;;;;;;0.87;45.91;97649.66;5010563;28;20199;-64
2021/03/20 11:43:50;;;;;;;3.17;2.33;;;;;;;1.06;44.25;97650.34;5009962;28;20191;-65
2021/03/20 11:46:19;;;;;;;3.60;2.23;;;;;;;1.27;40.97;97638.94;5010294;28;20183;-66
2021/03/20 11:49:01;;;;;;;3.17;2.30;;;;;;;1.41;43.12;97646.97;5009630;28;20191;-64
2021/03/20 11:51:42;;;;;;;2.20;2.10;;;;;;;1.43;43.05;97645.06;5010064;28;20747;-65
2021/03/20 11:54:37;;;;;;;3.53;2.20;;;;;;;1.44;41.57;97640.72;4996354;28;20604;-65
2021/03/20 11:57:22;;;;;;;2.57;2.37;;;;;;;1.52;42.30;97641.56;5009711;28;20189;-66
2021/03/20 11:59:49;;;;;;;3.03;2.33;;;;;;;1.52;43.26;97633.81;5008180;28;20270;-66
2021/03/20 12:02:24;;;;;;;3.77;2.43;;;;;;;1.71;43.96;97622.53;5010662;28;20186;-65
2021/03/20 12:05:12;;;;;;;3.17;2.53;;;;;;;1.71;45.74;97622.53;5010817;28;20179;-66
2021/03/20 12:07:41;;;;;;;3.00;2.80;;;;;;;1.62;45.47;97613.88;5009882;28;20274;-65
2021/03/20 12:10:24;;;;;;;4.87;2.97;;;;;;;1.66;46.15;97611.81;5010346;28;20199;-64
2021/03/20 12:12:56;;;;;;;3.53;3.17;;;;;;;1.55;45.88;97612.88;5013869;28;20191;-64
2021/03/20 12:15:34;;;;;;;3.30;3.03;;;;;;;1.63;46.89;97618.09;5013511;28;20198;-65
2021/03/20 12:18:22;;;;;;;3.57;3.27;;;;;;;1.64;46.55;97614.56;5013666;28;20202;-65
2021/03/20 12:20:49;;;;;;;4.87;2.93;;;;;;;2.01;48.52;97614.31;5006603;28;20223;-65
2021/03/20 12:23:23;;;;;;;3.60;2.90;;;;;;;2.20;45.97;97615.06;5004888;28;20543;-65